sensor_id;sensor_type;location;lat;lon;timestamp;pressure;altitude;pressure_sealevel;temperature;humidity
44127;BME280;29786;50.798;7.302;2022-11-23T00:00:41;97450;;;7.75;100
44127;BME280;29786;50.798;7.302;2022-11-23T00:01:42;97460;;;7.73;100
44127;BME280;29786;50.798;7.302;2022-11-23T00:02:41;97460;;;7.75;100
44127;BME280;29786;50.798;7.302;2022-11-23T00:03:42;97450;;;7.89;100
44127;BME280;29786;50.798;7.302;2022-11-23T00:04:41;97450;;;7.9;100
44127;BME280;29786;50.798;7.302;2022-11-23T00:05:41;97450;;;7.91;100
44127;BME280;29786;50.798;7.302;2022-11-23T00:06:41;97450;;;7.95;100
44127;BME280;29786;50.798;7.302;2022-11-23T00:07:41;97460;;;7.97;100
44127;BME280;29786;50.798;7.302;2022-11-23T00:08:41;97450;;;7.98;100
44127;BME280;29786;50.798;7.302;2022-11-23T00:09:41;97450;;;7.98;100
44127;BME280;29786;50.798;7.302;2022-11-23T00:10:41;97460;;;7.95;100
44127;BME280;29786;50.798;7.302;2022-11-23T00:11:41;97450;;;7.95;100
44127;BME280;29786;50.798;7.302;2022-11-23T00:12:41;97450;;;7.98;100
44127;BME280;29786;50.798;7.302;2022-11-23T00:13:41;97450;;;7.97;100
44127;BME280;29786;50.798;7.302;2022-11-23T00:14:41;97460;;;8.04;100
44127;BME280;29786;50.798;7.302;2022-11-23T00:15:41;97460;;;8.02;100
44127;BME280;29786;50.798;7.302;2022-11-23T00:16:41;97450;;;7.97;100
44127;BME280;29786;50.798;7.302;2022-11-23T00:17:41;97460;;;7.98;100
44127;BME280;29786;50.798;7.302;2022-11-23T00:18:41;97460;;;7.93;100
44127;BME280;29786;50.798;7.302;2022-11-23T00:19:41;97460;;;7.91;100
44127;BME280;29786;50.798;7.302;2022-11-23T00:20:41;97460;;;7.98;100
44127;BME280;29786;50.798;7.302;2022-11-23T00:21:41;97460;;;8;100
44127;BME280;29786;50.798;7.302;2022-11-23T00:22:41;97450;;;8.02;100
44127;BME280;29786;50.798;7.302;2022-11-23T00:23:41;97460;;;8;100
44127;BME280;29786;50.798;7.302;2022-11-23T00:24:41;97460;;;8.06;100
44127;BME280;29786;50.798;7.302;2022-11-23T00:25:43;97460;;;8.01;100
44127;BME280;29786;50.798;7.302;2022-11-23T00:26:41;97460;;;8.04;100
44127;BME280;29786;50.798;7.302;2022-11-23T00:27:41;97460;;;7.99;100
44127;BME280;29786;50.798;7.302;2022-11-23T00:28:41;97470;;;8.02;100
44127;BME280;29786;50.798;7.302;2022-11-23T00:29:41;97470;;;8.05;100
44127;BME280;29786;50.798;7.302;2022-11-23T00:30:41;97470;;;8.05;100
44127;BME280;29786;50.798;7.302;2022-11-23T00:31:41;97460;;;8;100
44127;BME280;29786;50.798;7.302;2022-11-23T00:32:41;97460;;;8.04;100
44127;BME280;29786;50.798;7.302;2022-11-23T00:33:41;97470;;;7.96;100
44127;BME280;29786;50.798;7.302;2022-11-23T00:34:41;97460;;;7.96;100
44127;BME280;29786;50.798;7.302;2022-11-23T00:35:41;97460;;;8.03;100
44127;BME280;29786;50.798;7.302;2022-11-23T00:36:41;97460;;;8.04;100
44127;BME280;29786;50.798;7.302;2022-11-23T00:37:41;97460;;;8.06;100
44127;BME280;29786;50.798;7.302;2022-11-23T00:38:42;97460;;;8.06;100
44127;BME280;29786;50.798;7.302;2022-11-23T00:39:41;97470;;;8.07;100
44127;BME280;29786;50.798;7.302;2022-11-23T00:40:41;97470;;;8.01;100
44127;BME280;29786;50.798;7.302;2022-11-23T00:41:41;97470;;;8.06;100
44127;BME280;29786;50.798;7.302;2022-11-23T00:42:41;97470;;;8.03;100
44127;BME280;29786;50.798;7.302;2022-11-23T00:43:41;97470;;;8.05;100
44127;BME280;29786;50.798;7.302;2022-11-23T00:44:41;97470;;;8.04;100
44127;BME280;29786;50.798;7.302;2022-11-23T00:45:41;97480;;;8.06;100
44127;BME280;29786;50.798;7.302;2022-11-23T00:46:41;97470;;;8.06;100
44127;BME280;29786;50.798;7.302;2022-11-23T00:47:41;97470;;;8.05;100
44127;BME280;29786;50.798;7.302;2022-11-23T00:48:42;97480;;;7.99;100
44127;BME280;29786;50.798;7.302;2022-11-23T00:49:41;97470;;;7.97;100
44127;BME280;29786;50.798;7.302;2022-11-23T00:50:41;97470;;;8.05;100
44127;BME280;29786;50.798;7.302;2022-11-23T00:51:41;97470;;;8.04;100
44127;BME280;29786;50.798;7.302;2022-11-23T00:52:41;97480;;;8.07;100
44127;BME280;29786;50.798;7.302;2022-11-23T00:53:41;97480;;;8.1;100
44127;BME280;29786;50.798;7.302;2022-11-23T00:54:41;97480;;;8.06;100
44127;BME280;29786;50.798;7.302;2022-11-23T00:55:49;97480;;;8.1;100
44127;BME280;29786;50.798;7.302;2022-11-23T00:56:41;97480;;;8.17;100
44127;BME280;29786;50.798;7.302;2022-11-23T00:57:41;97480;;;8.18;100
44127;BME280;29786;50.798;7.302;2022-11-23T00:58:41;97480;;;8.17;100
44127;BME280;29786;50.798;7.302;2022-11-23T00:59:41;97480;;;8.09;100
44127;BME280;29786;50.798;7.302;2022-11-23T01:00:41;97480;;;8.1;100
44127;BME280;29786;50.798;7.302;2022-11-23T01:01:41;97480;;;8.16;100
44127;BME280;29786;50.798;7.302;2022-11-23T01:02:41;97480;;;8.09;100
44127;BME280;29786;50.798;7.302;2022-11-23T01:03:42;97480;;;8.07;100
44127;BME280;29786;50.798;7.302;2022-11-23T01:04:41;97480;;;8.08;100
44127;BME280;29786;50.798;7.302;2022-11-23T01:05:41;97480;;;8.1;100
44127;BME280;29786;50.798;7.302;2022-11-23T01:06:41;97480;;;8.09;100
44127;BME280;29786;50.798;7.302;2022-11-23T01:07:41;97480;;;8.06;100
44127;BME280;29786;50.798;7.302;2022-11-23T01:08:41;97490;;;8.05;100
44127;BME280;29786;50.798;7.302;2022-11-23T01:09:41;97480;;;8.08;100
44127;BME280;29786;50.798;7.302;2022-11-23T01:10:41;97490;;;8.06;100
44127;BME280;29786;50.798;7.302;2022-11-23T01:11:41;97490;;;8.07;100
44127;BME280;29786;50.798;7.302;2022-11-23T01:12:41;97490;;;8.05;100
44127;BME280;29786;50.798;7.302;2022-11-23T01:13:41;97490;;;8.1;100
44127;BME280;29786;50.798;7.302;2022-11-23T01:14:41;97490;;;8.08;100
44127;BME280;29786;50.798;7.302;2022-11-23T01:15:47;97490;;;8.08;100
44127;BME280;29786;50.798;7.302;2022-11-23T01:16:41;97490;;;8.08;100
44127;BME280;29786;50.798;7.302;2022-11-23T01:17:41;97490;;;8.13;100
44127;BME280;29786;50.798;7.302;2022-11-23T01:18:41;97490;;;8.1;100
44127;BME280;29786;50.798;7.302;2022-11-23T01:19:41;97490;;;8.1;100
44127;BME280;29786;50.798;7.302;2022-11-23T01:20:41;97490;;;8.12;100
44127;BME280;29786;50.798;7.302;2022-11-23T01:21:41;97490;;;8.08;100
44127;BME280;29786;50.798;7.302;2022-11-23T01:22:41;97490;;;8.13;100
44127;BME280;29786;50.798;7.302;2022-11-23T01:23:41;97500;;;8.14;100
44127;BME280;29786;50.798;7.302;2022-11-23T01:24:41;97500;;;8.14;100
44127;BME280;29786;50.798;7.302;2022-11-23T01:25:41;97500;;;8.08;100
44127;BME280;29786;50.798;7.302;2022-11-23T01:26:41;97500;;;8.1;100
44127;BME280;29786;50.798;7.302;2022-11-23T01:27:41;97500;;;8.04;100
44127;BME280;29786;50.798;7.302;2022-11-23T01:28:41;97500;;;8.12;100
44127;BME280;29786;50.798;7.302;2022-11-23T01:29:41;97510;;;8.12;100
44127;BME280;29786;50.798;7.302;2022-11-23T01:30:41;97510;;;8.13;100
44127;BME280;29786;50.798;7.302;2022-11-23T01:31:41;97510;;;8.14;100
44127;BME280;29786;50.798;7.302;2022-11-23T01:32:41;97510;;;8.16;100
44127;BME280;29786;50.798;7.302;2022-11-23T01:33:41;97510;;;8.14;100
44127;BME280;29786;50.798;7.302;2022-11-23T01:34:41;97510;;;8.04;100
44127;BME280;29786;50.798;7.302;2022-11-23T01:35:41;97510;;;8.06;100
44127;BME280;29786;50.798;7.302;2022-11-23T01:36:41;97510;;;8.1;100
44127;BME280;29786;50.798;7.302;2022-11-23T01:37:41;97510;;;8.06;100
44127;BME280;29786;50.798;7.302;2022-11-23T01:38:41;97510;;;8.1;100
44127;BME280;29786;50.798;7.302;2022-11-23T01:39:41;97510;;;8.07;100
44127;BME280;29786;50.798;7.302;2022-11-23T01:40:41;97510;;;8.05;100
44127;BME280;29786;50.798;7.302;2022-11-23T01:41:42;97510;;;8.07;100
44127;BME280;29786;50.798;7.302;2022-11-23T01:42:48;97520;;;8.04;100
44127;BME280;29786;50.798;7.302;2022-11-23T01:43:41;97510;;;8.07;100
44127;BME280;29786;50.798;7.302;2022-11-23T01:44:41;97510;;;7.98;100
44127;BME280;29786;50.798;7.302;2022-11-23T01:45:43;97510;;;8.03;100
44127;BME280;29786;50.798;7.302;2022-11-23T01:46:41;97510;;;8.01;100
44127;BME280;29786;50.798;7.302;2022-11-23T01:47:41;97510;;;7.97;100
44127;BME280;29786;50.798;7.302;2022-11-23T01:48:52;97520;;;7.96;100
44127;BME280;29786;50.798;7.302;2022-11-23T01:49:42;97510;;;7.9;100
44127;BME280;29786;50.798;7.302;2022-11-23T01:50:41;97510;;;7.96;100
44127;BME280;29786;50.798;7.302;2022-11-23T01:51:42;97520;;;8.03;100
44127;BME280;29786;50.798;7.302;2022-11-23T01:52:41;97510;;;8.01;100
44127;BME280;29786;50.798;7.302;2022-11-23T01:53:42;97510;;;8;100
44127;BME280;29786;50.798;7.302;2022-11-23T01:54:43;97510;;;8.05;100
44127;BME280;29786;50.798;7.302;2022-11-23T01:55:41;97520;;;8.03;100
44127;BME280;29786;50.798;7.302;2022-11-23T01:56:43;97520;;;8.06;100
44127;BME280;29786;50.798;7.302;2022-11-23T01:57:41;97520;;;8.06;100
44127;BME280;29786;50.798;7.302;2022-11-23T01:58:42;97510;;;8.09;100
44127;BME280;29786;50.798;7.302;2022-11-23T01:59:41;97520;;;8.1;100
44127;BME280;29786;50.798;7.302;2022-11-23T02:00:41;97510;;;8.08;100
44127;BME280;29786;50.798;7.302;2022-11-23T02:01:41;97520;;;8.09;100
44127;BME280;29786;50.798;7.302;2022-11-23T02:02:43;97520;;;8.05;100
44127;BME280;29786;50.798;7.302;2022-11-23T02:03:41;97520;;;8.1;100
44127;BME280;29786;50.798;7.302;2022-11-23T02:04:42;97520;;;8.14;100
44127;BME280;29786;50.798;7.302;2022-11-23T02:05:43;97520;;;8.12;100
44127;BME280;29786;50.798;7.302;2022-11-23T02:06:42;97520;;;8.1;100
44127;BME280;29786;50.798;7.302;2022-11-23T02:07:41;97520;;;8.09;100
44127;BME280;29786;50.798;7.302;2022-11-23T02:08:41;97520;;;8.12;100
44127;BME280;29786;50.798;7.302;2022-11-23T02:09:41;97520;;;8.14;100
44127;BME280;29786;50.798;7.302;2022-11-23T02:10:41;97520;;;8.14;100
44127;BME280;29786;50.798;7.302;2022-11-23T02:11:41;97520;;;8.12;100
44127;BME280;29786;50.798;7.302;2022-11-23T02:12:41;97530;;;8.12;100
44127;BME280;29786;50.798;7.302;2022-11-23T02:13:42;97530;;;8.16;100
44127;BME280;29786;50.798;7.302;2022-11-23T02:14:41;97530;;;8.18;100
44127;BME280;29786;50.798;7.302;2022-11-23T02:15:41;97530;;;8.14;100
44127;BME280;29786;50.798;7.302;2022-11-23T02:20:42;97530;;;8.04;100
44127;BME280;29786;50.798;7.302;2022-11-23T02:21:41;97530;;;8.08;100
44127;BME280;29786;50.798;7.302;2022-11-23T02:23:49;97530;;;8.05;100
44127;BME280;29786;50.798;7.302;2022-11-23T02:23:51;97530;;;8.09;100
44127;BME280;29786;50.798;7.302;2022-11-23T02:24:45;97530;;;8.14;100
44127;BME280;29786;50.798;7.302;2022-11-23T02:26:15;97530;;;8.16;100
44127;BME280;29786;50.798;7.302;2022-11-23T02:26:41;97530;;;8.18;100
44127;BME280;29786;50.798;7.302;2022-11-23T02:27:41;97530;;;8.2;100
44127;BME280;29786;50.798;7.302;2022-11-23T02:28:46;97530;;;8.18;100
44127;BME280;29786;50.798;7.302;2022-11-23T02:29:41;97530;;;8.13;100
44127;BME280;29786;50.798;7.302;2022-11-23T02:30:41;97530;;;8.09;100
44127;BME280;29786;50.798;7.302;2022-11-23T02:31:41;97530;;;8.1;100
44127;BME280;29786;50.798;7.302;2022-11-23T02:32:41;97530;;;8.13;100
44127;BME280;29786;50.798;7.302;2022-11-23T02:33:41;97530;;;8.13;100
44127;BME280;29786;50.798;7.302;2022-11-23T02:34:41;97530;;;8.21;100
44127;BME280;29786;50.798;7.302;2022-11-23T02:35:49;97530;;;8.18;100
44127;BME280;29786;50.798;7.302;2022-11-23T02:36:42;97530;;;8.25;100
44127;BME280;29786;50.798;7.302;2022-11-23T02:37:41;97530;;;8.22;100
44127;BME280;29786;50.798;7.302;2022-11-23T02:38:41;97530;;;8.24;100
44127;BME280;29786;50.798;7.302;2022-11-23T02:39:43;97530;;;8.13;100
44127;BME280;29786;50.798;7.302;2022-11-23T02:40:41;97530;;;8.13;100
44127;BME280;29786;50.798;7.302;2022-11-23T02:41:43;97530;;;8.18;100
44127;BME280;29786;50.798;7.302;2022-11-23T02:42:41;97530;;;8.18;100
44127;BME280;29786;50.798;7.302;2022-11-23T02:43:41;97530;;;8.14;100
44127;BME280;29786;50.798;7.302;2022-11-23T02:44:45;97530;;;8.18;100
44127;BME280;29786;50.798;7.302;2022-11-23T02:45:45;97530;;;8.21;100
44127;BME280;29786;50.798;7.302;2022-11-23T02:46:41;97540;;;8.21;100
44127;BME280;29786;50.798;7.302;2022-11-23T02:47:41;97530;;;8.2;100
44127;BME280;29786;50.798;7.302;2022-11-23T02:48:41;97530;;;8.16;100
44127;BME280;29786;50.798;7.302;2022-11-23T02:49:41;97530;;;8.2;100
44127;BME280;29786;50.798;7.302;2022-11-23T02:50:41;97530;;;8.16;100
44127;BME280;29786;50.798;7.302;2022-11-23T02:51:41;97540;;;8.21;100
44127;BME280;29786;50.798;7.302;2022-11-23T02:52:41;97530;;;8.14;100
44127;BME280;29786;50.798;7.302;2022-11-23T02:53:41;97540;;;8.18;100
44127;BME280;29786;50.798;7.302;2022-11-23T02:54:41;97530;;;8.13;100
44127;BME280;29786;50.798;7.302;2022-11-23T02:55:41;97530;;;8.1;100
44127;BME280;29786;50.798;7.302;2022-11-23T02:56:41;97530;;;8.14;100
44127;BME280;29786;50.798;7.302;2022-11-23T02:57:41;97530;;;8.1;100
44127;BME280;29786;50.798;7.302;2022-11-23T02:58:41;97530;;;8.08;100
44127;BME280;29786;50.798;7.302;2022-11-23T02:59:41;97530;;;8.06;100
44127;BME280;29786;50.798;7.302;2022-11-23T03:00:41;97530;;;8.1;100
44127;BME280;29786;50.798;7.302;2022-11-23T03:01:41;97530;;;8.14;100
44127;BME280;29786;50.798;7.302;2022-11-23T03:02:41;97530;;;8.2;100
44127;BME280;29786;50.798;7.302;2022-11-23T03:03:41;97530;;;8.21;100
44127;BME280;29786;50.798;7.302;2022-11-23T03:04:41;97530;;;8.21;100
44127;BME280;29786;50.798;7.302;2022-11-23T03:05:41;97530;;;8.2;100
44127;BME280;29786;50.798;7.302;2022-11-23T03:06:41;97530;;;8.2;100
44127;BME280;29786;50.798;7.302;2022-11-23T03:07:41;97530;;;8.2;100
44127;BME280;29786;50.798;7.302;2022-11-23T03:08:41;97530;;;8.2;100
44127;BME280;29786;50.798;7.302;2022-11-23T03:09:41;97530;;;8.22;100
44127;BME280;29786;50.798;7.302;2022-11-23T03:10:41;97530;;;8.26;100
44127;BME280;29786;50.798;7.302;2022-11-23T03:11:41;97530;;;8.17;100
44127;BME280;29786;50.798;7.302;2022-11-23T03:12:41;97530;;;8.18;100
44127;BME280;29786;50.798;7.302;2022-11-23T03:13:41;97530;;;8.17;100
44127;BME280;29786;50.798;7.302;2022-11-23T03:14:41;97530;;;8.17;100
44127;BME280;29786;50.798;7.302;2022-11-23T03:15:41;97530;;;8.13;100
44127;BME280;29786;50.798;7.302;2022-11-23T03:16:41;97530;;;8.08;100
44127;BME280;29786;50.798;7.302;2022-11-23T03:17:41;97530;;;8.07;100
44127;BME280;29786;50.798;7.302;2022-11-23T03:18:41;97540;;;8.1;100
44127;BME280;29786;50.798;7.302;2022-11-23T03:19:41;97540;;;8.09;100
44127;BME280;29786;50.798;7.302;2022-11-23T03:20:41;97540;;;8.1;100
44127;BME280;29786;50.798;7.302;2022-11-23T03:21:41;97540;;;8.12;100
44127;BME280;29786;50.798;7.302;2022-11-23T03:22:41;97540;;;8.1;100
44127;BME280;29786;50.798;7.302;2022-11-23T03:23:41;97540;;;8.08;100
44127;BME280;29786;50.798;7.302;2022-11-23T03:24:41;97540;;;8.06;100
44127;BME280;29786;50.798;7.302;2022-11-23T03:25:41;97540;;;8.04;100
44127;BME280;29786;50.798;7.302;2022-11-23T03:26:41;97530;;;8.1;100
44127;BME280;29786;50.798;7.302;2022-11-23T03:27:41;97540;;;8.13;100
44127;BME280;29786;50.798;7.302;2022-11-23T03:28:41;97530;;;8.12;100
44127;BME280;29786;50.798;7.302;2022-11-23T03:29:41;97530;;;8.13;100
44127;BME280;29786;50.798;7.302;2022-11-23T03:30:42;97530;;;8.14;100
44127;BME280;29786;50.798;7.302;2022-11-23T03:31:41;97530;;;8.14;100
44127;BME280;29786;50.798;7.302;2022-11-23T03:32:41;97520;;;8.05;100
44127;BME280;29786;50.798;7.302;2022-11-23T03:33:41;97520;;;8.08;100
44127;BME280;29786;50.798;7.302;2022-11-23T03:34:41;97530;;;8.09;100
44127;BME280;29786;50.798;7.302;2022-11-23T03:35:41;97530;;;8.06;100
44127;BME280;29786;50.798;7.302;2022-11-23T03:36:41;97530;;;8.05;100
44127;BME280;29786;50.798;7.302;2022-11-23T03:37:41;97520;;;8.05;100
44127;BME280;29786;50.798;7.302;2022-11-23T03:38:41;97530;;;8.01;100
44127;BME280;29786;50.798;7.302;2022-11-23T03:39:41;97520;;;8.05;100
44127;BME280;29786;50.798;7.302;2022-11-23T03:40:43;97520;;;8.09;100
44127;BME280;29786;50.798;7.302;2022-11-23T03:41:41;97530;;;8.1;100
44127;BME280;29786;50.798;7.302;2022-11-23T03:42:41;97530;;;8.08;100
44127;BME280;29786;50.798;7.302;2022-11-23T03:43:41;97530;;;8.02;100
44127;BME280;29786;50.798;7.302;2022-11-23T03:44:41;97530;;;7.95;100
44127;BME280;29786;50.798;7.302;2022-11-23T03:45:41;97530;;;8;100
44127;BME280;29786;50.798;7.302;2022-11-23T03:46:41;97540;;;8.1;100
44127;BME280;29786;50.798;7.302;2022-11-23T03:47:41;97540;;;8.05;100
44127;BME280;29786;50.798;7.302;2022-11-23T03:48:41;97530;;;8.01;100
44127;BME280;29786;50.798;7.302;2022-11-23T03:49:41;97540;;;8.02;100
44127;BME280;29786;50.798;7.302;2022-11-23T03:50:42;97530;;;8.07;100
44127;BME280;29786;50.798;7.302;2022-11-23T03:51:41;97530;;;8.16;100
44127;BME280;29786;50.798;7.302;2022-11-23T03:52:41;97540;;;8.1;100
44127;BME280;29786;50.798;7.302;2022-11-23T03:53:41;97530;;;8.1;100
44127;BME280;29786;50.798;7.302;2022-11-23T03:54:41;97540;;;8.05;100
44127;BME280;29786;50.798;7.302;2022-11-23T03:55:41;97540;;;7.99;100
44127;BME280;29786;50.798;7.302;2022-11-23T03:56:41;97540;;;8;100
44127;BME280;29786;50.798;7.302;2022-11-23T03:57:41;97540;;;7.97;100
44127;BME280;29786;50.798;7.302;2022-11-23T03:58:41;97540;;;8.05;100
44127;BME280;29786;50.798;7.302;2022-11-23T03:59:41;97540;;;8;100
44127;BME280;29786;50.798;7.302;2022-11-23T04:00:41;97540;;;8.05;100
44127;BME280;29786;50.798;7.302;2022-11-23T04:01:41;97540;;;8.03;100
44127;BME280;29786;50.798;7.302;2022-11-23T04:02:42;97540;;;8.05;100
44127;BME280;29786;50.798;7.302;2022-11-23T04:03:41;97540;;;8.04;100
44127;BME280;29786;50.798;7.302;2022-11-23T04:04:41;97540;;;8.06;100
44127;BME280;29786;50.798;7.302;2022-11-23T04:05:41;97550;;;8.03;100
44127;BME280;29786;50.798;7.302;2022-11-23T04:06:41;97540;;;8.07;100
44127;BME280;29786;50.798;7.302;2022-11-23T04:07:41;97540;;;8.05;100
44127;BME280;29786;50.798;7.302;2022-11-23T04:08:41;97550;;;8.04;100
44127;BME280;29786;50.798;7.302;2022-11-23T04:09:41;97540;;;8.04;100
44127;BME280;29786;50.798;7.302;2022-11-23T04:10:41;97550;;;8.03;100
44127;BME280;29786;50.798;7.302;2022-11-23T04:11:41;97550;;;8.07;100
44127;BME280;29786;50.798;7.302;2022-11-23T04:12:41;97550;;;8.1;100
44127;BME280;29786;50.798;7.302;2022-11-23T04:13:41;97550;;;8.08;100
44127;BME280;29786;50.798;7.302;2022-11-23T04:14:41;97550;;;8;100
44127;BME280;29786;50.798;7.302;2022-11-23T04:15:41;97550;;;8.06;100
44127;BME280;29786;50.798;7.302;2022-11-23T04:16:41;97550;;;8.07;100
44127;BME280;29786;50.798;7.302;2022-11-23T04:17:41;97550;;;8.06;100
44127;BME280;29786;50.798;7.302;2022-11-23T04:18:41;97550;;;8.05;100
44127;BME280;29786;50.798;7.302;2022-11-23T04:19:41;97550;;;8.02;100
44127;BME280;29786;50.798;7.302;2022-11-23T04:20:41;97540;;;7.96;100
44127;BME280;29786;50.798;7.302;2022-11-23T04:21:41;97550;;;7.91;100
44127;BME280;29786;50.798;7.302;2022-11-23T04:22:41;97540;;;8.02;100
44127;BME280;29786;50.798;7.302;2022-11-23T04:23:41;97550;;;8.02;100
44127;BME280;29786;50.798;7.302;2022-11-23T04:24:41;97540;;;8.05;100
44127;BME280;29786;50.798;7.302;2022-11-23T04:25:41;97540;;;8.03;100
44127;BME280;29786;50.798;7.302;2022-11-23T04:26:41;97550;;;8;100
44127;BME280;29786;50.798;7.302;2022-11-23T04:27:41;97550;;;7.97;100
44127;BME280;29786;50.798;7.302;2022-11-23T04:28:41;97550;;;7.97;100
44127;BME280;29786;50.798;7.302;2022-11-23T04:29:41;97540;;;8.03;100
44127;BME280;29786;50.798;7.302;2022-11-23T04:30:41;97550;;;8.03;100
44127;BME280;29786;50.798;7.302;2022-11-23T04:31:41;97550;;;8.07;100
44127;BME280;29786;50.798;7.302;2022-11-23T04:32:44;97550;;;8;100
44127;BME280;29786;50.798;7.302;2022-11-23T04:33:41;97550;;;7.95;100
44127;BME280;29786;50.798;7.302;2022-11-23T04:34:41;97540;;;7.89;100
44127;BME280;29786;50.798;7.302;2022-11-23T04:35:41;97540;;;7.87;100
44127;BME280;29786;50.798;7.302;2022-11-23T04:36:41;97540;;;7.88;100
44127;BME280;29786;50.798;7.302;2022-11-23T04:37:41;97550;;;7.96;100
44127;BME280;29786;50.798;7.302;2022-11-23T04:38:41;97550;;;7.99;100
44127;BME280;29786;50.798;7.302;2022-11-23T04:39:41;97550;;;8.02;100
44127;BME280;29786;50.798;7.302;2022-11-23T04:40:41;97550;;;8.07;100
44127;BME280;29786;50.798;7.302;2022-11-23T04:41:41;97550;;;8.05;100
44127;BME280;29786;50.798;7.302;2022-11-23T04:42:41;97550;;;8.05;100
44127;BME280;29786;50.798;7.302;2022-11-23T04:43:41;97550;;;8.02;100
44127;BME280;29786;50.798;7.302;2022-11-23T04:44:41;97550;;;8.04;100
44127;BME280;29786;50.798;7.302;2022-11-23T04:45:41;97560;;;8.02;100
44127;BME280;29786;50.798;7.302;2022-11-23T04:46:41;97550;;;8.07;100
44127;BME280;29786;50.798;7.302;2022-11-23T04:47:41;97550;;;7.98;100
44127;BME280;29786;50.798;7.302;2022-11-23T04:48:41;97550;;;8.02;100
44127;BME280;29786;50.798;7.302;2022-11-23T04:49:41;97550;;;8.02;100
44127;BME280;29786;50.798;7.302;2022-11-23T04:50:41;97550;;;8.05;100
44127;BME280;29786;50.798;7.302;2022-11-23T04:51:41;97550;;;8.06;100
44127;BME280;29786;50.798;7.302;2022-11-23T04:52:41;97550;;;8.07;100
44127;BME280;29786;50.798;7.302;2022-11-23T04:53:41;97550;;;8.07;100
44127;BME280;29786;50.798;7.302;2022-11-23T04:54:41;97560;;;8.05;100
44127;BME280;29786;50.798;7.302;2022-11-23T04:55:41;97560;;;8.08;100
44127;BME280;29786;50.798;7.302;2022-11-23T04:56:41;97560;;;8.05;100
44127;BME280;29786;50.798;7.302;2022-11-23T04:57:41;97560;;;8.05;100
44127;BME280;29786;50.798;7.302;2022-11-23T04:58:41;97560;;;8.05;100
44127;BME280;29786;50.798;7.302;2022-11-23T04:59:41;97560;;;8;100
44127;BME280;29786;50.798;7.302;2022-11-23T05:00:41;97560;;;8.02;100
44127;BME280;29786;50.798;7.302;2022-11-23T05:01:41;97560;;;7.91;100
44127;BME280;29786;50.798;7.302;2022-11-23T05:02:41;97560;;;7.9;100
44127;BME280;29786;50.798;7.302;2022-11-23T05:03:41;97560;;;7.96;100
44127;BME280;29786;50.798;7.302;2022-11-23T05:04:41;97560;;;7.93;100
44127;BME280;29786;50.798;7.302;2022-11-23T05:05:41;97560;;;7.9;100
44127;BME280;29786;50.798;7.302;2022-11-23T05:06:41;97560;;;7.94;100
44127;BME280;29786;50.798;7.302;2022-11-23T05:07:41;97560;;;7.98;100
44127;BME280;29786;50.798;7.302;2022-11-23T05:08:41;97560;;;7.96;100
44127;BME280;29786;50.798;7.302;2022-11-23T05:09:41;97560;;;7.94;100
44127;BME280;29786;50.798;7.302;2022-11-23T05:10:41;97560;;;7.92;100
44127;BME280;29786;50.798;7.302;2022-11-23T05:11:41;97550;;;7.93;100
44127;BME280;29786;50.798;7.302;2022-11-23T05:12:41;97560;;;7.92;100
44127;BME280;29786;50.798;7.302;2022-11-23T05:13:41;97550;;;7.97;100
44127;BME280;29786;50.798;7.302;2022-11-23T05:14:41;97550;;;7.99;100
44127;BME280;29786;50.798;7.302;2022-11-23T05:15:41;97560;;;7.99;100
44127;BME280;29786;50.798;7.302;2022-11-23T05:16:41;97560;;;8.01;100
44127;BME280;29786;50.798;7.302;2022-11-23T05:17:41;97560;;;8.02;100
44127;BME280;29786;50.798;7.302;2022-11-23T05:18:41;97560;;;7.97;100
44127;BME280;29786;50.798;7.302;2022-11-23T05:19:41;97560;;;7.96;100
44127;BME280;29786;50.798;7.302;2022-11-23T05:20:41;97560;;;7.96;100
44127;BME280;29786;50.798;7.302;2022-11-23T05:21:41;97560;;;7.95;100
44127;BME280;29786;50.798;7.302;2022-11-23T05:22:41;97560;;;7.91;100
44127;BME280;29786;50.798;7.302;2022-11-23T05:23:41;97550;;;7.96;100
44127;BME280;29786;50.798;7.302;2022-11-23T05:24:41;97550;;;7.92;100
44127;BME280;29786;50.798;7.302;2022-11-23T05:25:41;97560;;;7.87;100
44127;BME280;29786;50.798;7.302;2022-11-23T05:26:41;97560;;;7.95;100
44127;BME280;29786;50.798;7.302;2022-11-23T05:27:41;97560;;;7.9;100
44127;BME280;29786;50.798;7.302;2022-11-23T05:28:41;97560;;;7.91;100
44127;BME280;29786;50.798;7.302;2022-11-23T05:29:41;97570;;;7.92;100
44127;BME280;29786;50.798;7.302;2022-11-23T05:30:41;97560;;;7.89;100
44127;BME280;29786;50.798;7.302;2022-11-23T05:31:41;97570;;;7.9;100
44127;BME280;29786;50.798;7.302;2022-11-23T05:32:41;97570;;;7.88;100
44127;BME280;29786;50.798;7.302;2022-11-23T05:33:41;97570;;;7.84;100
44127;BME280;29786;50.798;7.302;2022-11-23T05:34:41;97570;;;7.82;100
44127;BME280;29786;50.798;7.302;2022-11-23T05:35:41;97570;;;7.91;100
44127;BME280;29786;50.798;7.302;2022-11-23T05:36:41;97570;;;7.85;100
44127;BME280;29786;50.798;7.302;2022-11-23T05:37:41;97580;;;7.88;100
44127;BME280;29786;50.798;7.302;2022-11-23T05:38:41;97570;;;7.9;100
44127;BME280;29786;50.798;7.302;2022-11-23T05:39:41;97570;;;7.86;100
44127;BME280;29786;50.798;7.302;2022-11-23T05:40:41;97570;;;7.87;100
44127;BME280;29786;50.798;7.302;2022-11-23T05:41:41;97570;;;7.96;100
44127;BME280;29786;50.798;7.302;2022-11-23T05:42:41;97570;;;7.94;100
44127;BME280;29786;50.798;7.302;2022-11-23T05:43:41;97580;;;7.95;100
44127;BME280;29786;50.798;7.302;2022-11-23T05:44:41;97580;;;7.93;100
44127;BME280;29786;50.798;7.302;2022-11-23T05:45:41;97580;;;7.92;100
44127;BME280;29786;50.798;7.302;2022-11-23T05:46:41;97580;;;7.85;100
44127;BME280;29786;50.798;7.302;2022-11-23T05:47:41;97580;;;7.86;100
44127;BME280;29786;50.798;7.302;2022-11-23T05:48:41;97580;;;7.8;100
44127;BME280;29786;50.798;7.302;2022-11-23T05:49:41;97580;;;7.77;100
44127;BME280;29786;50.798;7.302;2022-11-23T05:50:41;97580;;;7.81;100